Time;durP1;ratioP1;P1;durP2;ratioP2;P2;SDS_P1;SDS_P2;PMS_P1;PMS_P2;Temp;Humidity;BMP_temperature;BMP_pressure;BME280_temperature;BME280_humidity;BME280_pressure;Samples;Min_cycle;Max_cycle;Signal;HPM_P1;HPM_P2
2023/01/14 00:00:16;;;;;;;14.93;2.95;;;7.80;99.90;;;;;;6101922;23;20092;-80
2023/01/14 00:02:42;;;;;;;15.73;2.83;;;7.80;99.90;;;;;;6127674;23;20064;-79
2023/01/14 00:05:08;;;;;;;14.57;2.22;;;7.80;99.90;;;;;;6126784;23;20442;-80
2023/01/14 00:07:34;;;;;;;10.50;1.90;;;7.80;99.90;;;;;;6128079;23;20010;-79
2023/01/14 00:09:59;;;;;;;13.73;2.80;;;7.70;99.90;;;;;;6126317;23;20065;-79
2023/01/14 00:12:25;;;;;;;14.57;2.65;;;7.70;99.90;;;;;;6127329;23;20079;-84
2023/01/14 00:14:51;;;;;;;10.88;2.33;;;7.70;99.90;;;;;;6126718;23;20107;-85
2023/01/14 00:17:18;;;;;;;14.02;1.75;;;7.70;99.90;;;;;;6127282;23;20041;-80
2023/01/14 00:19:43;;;;;;;13.95;2.90;;;7.70;99.90;;;;;;6103204;23;20485;-82
2023/01/14 00:22:09;;;;;;;16.48;2.40;;;7.70;99.90;;;;;;6128834;23;20010;-80
2023/01/14 00:24:34;;;;;;;17.33;2.85;;;7.70;99.90;;;;;;6127951;23;20014;-80
2023/01/14 00:27:01;;;;;;;16.35;2.35;;;7.80;99.90;;;;;;6128080;23;20068;-80
2023/01/14 00:29:32;;;;;;;10.70;2.20;;;7.70;99.90;;;;;;6128514;23;20049;-79
2023/01/14 00:32:00;;;;;;;18.52;2.83;;;7.80;99.90;;;;;;6127822;23;20037;-81
2023/01/14 00:34:28;;;;;;;18.58;3.15;;;7.80;99.90;;;;;;6126282;23;20017;-80
2023/01/14 00:36:54;;;;;;;13.23;2.53;;;7.80;99.90;;;;;;6102903;23;20014;-80
2023/01/14 00:39:20;;;;;;;15.82;2.88;;;7.80;99.90;;;;;;6129537;23;20014;-80
2023/01/14 00:41:46;;;;;;;15.88;2.53;;;7.80;99.90;;;;;;6129743;23;20100;-81
2023/01/14 00:44:11;;;;;;;17.95;3.17;;;7.80;99.90;;;;;;6128910;23;20485;-80
2023/01/14 00:46:39;;;;;;;14.88;2.05;;;7.80;99.90;;;;;;6128181;23;20017;-80
2023/01/14 00:49:06;;;;;;;8.77;1.50;;;7.80;99.90;;;;;;6104810;23;20025;-80
2023/01/14 00:51:33;;;;;;;18.05;2.55;;;7.80;99.90;;;;;;6128892;23;20025;-80
2023/01/14 00:53:59;;;;;;;13.48;2.50;;;7.80;99.90;;;;;;6128340;23;20465;-81
2023/01/14 00:56:25;;;;;;;19.85;2.53;;;7.70;99.90;;;;;;6103107;23;20024;-80
2023/01/14 00:58:51;;;;;;;9.98;2.05;;;7.80;99.90;;;;;;6104230;23;20044;-80
2023/01/14 01:01:17;;;;;;;15.35;2.65;;;7.70;99.90;;;;;;6129552;23;20053;-83
2023/01/14 01:03:45;;;;;;;16.30;2.72;;;7.60;99.90;;;;;;6103430;23;20049;-83
2023/01/14 01:06:13;;;;;;;14.02;2.20;;;7.60;99.90;;;;;;6128775;23;20014;-80
2023/01/14 01:08:39;;;;;;;18.52;2.55;;;7.60;99.90;;;;;;6128428;23;20013;-80
2023/01/14 01:11:05;;;;;;;13.95;2.28;;;7.50;99.90;;;;;;6128901;23;20016;-80
2023/01/14 01:13:31;;;;;;;15.07;2.40;;;7.50;99.90;;;;;;6130259;23;20100;-81
2023/01/14 01:16:02;;;;;;;19.77;2.40;;;7.20;99.90;;;;;;6127420;23;20009;-80
2023/01/14 01:18:28;;;;;;;15.80;2.72;;;7.40;99.90;;;;;;6129263;23;20036;-79
2023/01/14 01:21:05;;;;;;;9.88;2.53;;;7.50;99.90;;;;;;6129593;23;20018;-80
2023/01/14 01:23:31;;;;;;;20.05;2.90;;;7.40;99.90;;;;;;6128664;23;20390;-80
2023/01/14 01:26:05;;;;;;;23.27;3.03;;;7.50;99.90;;;;;;6128115;23;20060;-81
2023/01/14 01:28:32;;;;;;;17.88;2.88;;;7.50;99.90;;;;;;6128229;23;20060;-80
2023/01/14 01:31:01;;;;;;;14.85;2.08;;;7.50;99.90;;;;;;6128427;23;20025;-80
2023/01/14 01:33:27;;;;;;;16.90;2.78;;;7.50;99.90;;;;;;6127860;23;20017;-80
2023/01/14 01:36:05;;;;;;;12.95;2.88;;;7.60;99.90;;;;;;6126374;23;20017;-80
2023/01/14 01:38:31;;;;;;;17.83;2.65;;;7.60;99.90;;;;;;6126095;23;20394;-81
2023/01/14 01:40:57;;;;;;;18.10;3.13;;;7.60;99.90;;;;;;6127640;23;20021;-79
2023/01/14 01:43:26;;;;;;;21.33;2.75;;;7.50;99.90;;;;;;6103799;23;20018;-79
2023/01/14 01:45:53;;;;;;;26.90;2.42;;;7.50;99.90;;;;;;6126557;23;20013;-82
2023/01/14 01:48:28;;;;;;;17.38;2.20;;;7.50;99.90;;;;;;6128153;23;20451;-80
2023/01/14 01:51:11;;;;;;;19.23;4.60;;;7.60;99.90;;;;;;6127955;23;20108;-79
2023/01/14 01:53:41;;;;;;;27.55;4.13;;;7.60;99.90;;;;;;6127126;23;20302;-80
2023/01/14 01:56:11;;;;;;;23.92;3.45;;;7.60;99.90;;;;;;6102887;23;20029;-81
2023/01/14 01:58:37;;;;;;;18.73;3.03;;;7.70;99.90;;;;;;6127513;23;20009;-80
2023/01/14 02:01:03;;;;;;;19.73;2.95;;;7.70;99.90;;;;;;6103805;23;20052;-81
2023/01/14 02:03:35;;;;;;;15.30;3.17;;;7.60;99.90;;;;;;6127715;23;20064;-83
2023/01/14 02:06:01;;;;;;;13.43;2.65;;;7.60;99.90;;;;;;6127329;23;20045;-83
2023/01/14 02:08:27;;;;;;;18.83;2.90;;;7.60;99.90;;;;;;6125667;23;20014;-79
2023/01/14 02:11:04;;;;;;;15.00;2.95;;;7.60;99.90;;;;;;6126252;23;20016;-81
2023/01/14 02:14:03;;;;;;;12.85;2.10;;;7.60;99.90;;;;;;6126551;23;20036;-79
2023/01/14 02:16:57;;;;;;;16.50;2.67;;;7.60;99.90;;;;;;6126445;23;20018;-79
2023/01/14 02:19:25;;;;;;;17.50;3.15;;;7.60;99.90;;;;;;6127546;23;20016;-84
2023/01/14 02:22:05;;;;;;;15.20;3.55;;;7.60;99.90;;;;;;6127345;23;20391;-79
2023/01/14 02:24:50;;;;;;;21.85;2.75;;;7.60;99.90;;;;;;6127996;23;20089;-81
2023/01/14 02:27:47;;;;;;;27.48;4.05;;;7.60;99.90;;;;;;6103089;23;20021;-82
2023/01/14 02:30:19;;;;;;;21.35;3.60;;;7.60;99.90;;;;;;6054228;23;20096;-80
2023/01/14 02:33:13;;;;;;;15.73;2.75;;;7.60;99.90;;;;;;6129096;23;20024;-81
2023/01/14 02:35:44;;;;;;;17.95;2.63;;;7.60;99.90;;;;;;6128680;23;20024;-84
2023/01/14 02:38:30;;;;;;;18.15;3.63;;;7.60;99.90;;;;;;6128149;23;20052;-85
2023/01/14 02:41:02;;;;;;;;;;;7.60;99.90;;;;;;6129747;23;20017;-80
2023/01/14 02:46:30;;;;;;;21.27;3.33;;;7.50;99.90;;;;;;6128376;23;20025;-82
2023/01/14 02:48:58;;;;;;;19.33;2.95;;;7.60;99.90;;;;;;6128934;23;20020;-79
2023/01/14 02:51:25;;;;;;;19.60;3.03;;;7.50;99.90;;;;;;6128960;23;20014;-84
2023/01/14 02:53:50;;;;;;;20.35;3.72;;;7.50;99.90;;;;;;6104830;23;20068;-82
2023/01/14 02:56:16;;;;;;;27.80;3.60;;;7.60;99.90;;;;;;6129134;23;20017;-79
2023/01/14 02:58:57;;;;;;;19.35;3.30;;;7.50;99.90;;;;;;6129217;23;20056;-80
2023/01/14 03:01:44;;;;;;;21.42;3.28;;;7.50;99.90;;;;;;6104520;23;20053;-81
2023/01/14 03:04:29;;;;;;;18.85;3.70;;;7.40;99.90;;;;;;6128244;23;20009;-81
2023/01/14 03:07:07;;;;;;;18.55;2.58;;;7.30;99.90;;;;;;6103704;23;20803;-80
2023/01/14 03:09:46;;;;;;;19.90;3.50;;;7.20;99.90;;;;;;6126713;23;20016;-85
2023/01/14 03:12:47;;;;;;;20.10;4.30;;;7.20;99.90;;;;;;6103844;23;20013;-79
2023/01/14 03:15:33;;;;;;;23.42;3.92;;;7.20;99.90;;;;;;6108104;23;20541;-79
2023/01/14 03:18:13;;;;;;;20.45;2.88;;;7.10;99.90;;;;;;6128498;23;20026;-80
2023/01/14 03:20:42;;;;;;;24.20;2.97;;;7.10;99.90;;;;;;6102811;23;20017;-79
2023/01/14 03:23:17;;;;;;;19.40;4.15;;;7.10;99.90;;;;;;6101812;23;20020;-83
2023/01/14 03:25:46;;;;;;;18.90;3.90;;;7.00;99.90;;;;;;6126980;23;20470;-79
2023/01/14 03:28:16;;;;;;;19.02;3.10;;;7.00;99.90;;;;;;6128343;23;20090;-84
2023/01/14 03:30:48;;;;;;;21.67;4.03;;;6.90;99.90;;;;;;6128735;23;20100;-80
2023/01/14 03:33:49;;;;;;;24.83;3.75;;;6.90;99.90;;;;;;6128833;23;20024;-84
2023/01/14 03:36:15;;;;;;;24.13;3.05;;;6.80;99.90;;;;;;6103021;23;20055;-80
2023/01/14 03:38:55;;;;;;;24.00;3.05;;;6.80;99.90;;;;;;6128311;23;20029;-80
2023/01/14 03:44:10;;;;;;;;;;;6.60;99.90;;;;;;6128976;23;20489;-80
2023/01/14 03:46:36;;;;;;;12.10;2.47;;;6.60;99.90;;;;;;6127986;23;19944;-79
2023/01/14 03:49:01;;;;;;;18.67;2.95;;;6.60;99.90;;;;;;6103048;23;20013;-79
2023/01/14 03:51:45;;;;;;;17.55;3.55;;;6.50;99.90;;;;;;6126395;23;20025;-80
2023/01/14 03:54:14;;;;;;;17.73;2.10;;;6.50;99.90;;;;;;6127528;23;20017;-80
2023/01/14 03:56:46;;;;;;;18.30;3.08;;;6.40;99.90;;;;;;6103241;23;20010;-80
2023/01/14 03:59:34;;;;;;;17.55;3.05;;;6.40;99.90;;;;;;6104719;23;20010;-80
2023/01/14 04:02:03;;;;;;;16.27;3.90;;;6.40;99.90;;;;;;6129208;23;20010;-79
2023/01/14 04:04:30;;;;;;;16.35;1.98;;;6.40;99.90;;;;;;6128328;23;20009;-79
2023/01/14 04:06:56;;;;;;;28.10;3.92;;;6.40;99.90;;;;;;6128153;23;20481;-80
2023/01/14 04:09:21;;;;;;;20.50;2.75;;;6.30;99.90;;;;;;6129375;23;20010;-80
2023/01/14 04:11:47;;;;;;;18.05;2.92;;;6.30;99.90;;;;;;6129716;23;20048;-79
2023/01/14 04:16:57;;;;;;;16.00;2.42;;;6.30;99.90;;;;;;6129495;23;20032;-80
2023/01/14 04:19:22;;;;;;;19.40;2.92;;;6.30;99.90;;;;;;6130309;23;20025;-80
2023/01/14 04:21:48;;;;;;;21.27;3.25;;;6.30;99.90;;;;;;6106104;23;20101;-79
2023/01/14 04:24:13;;;;;;;16.25;2.38;;;6.30;99.90;;;;;;6105878;23;20014;-79
2023/01/14 04:26:39;;;;;;;14.43;1.77;;;6.20;99.90;;;;;;6104403;23;20612;-79
2023/01/14 04:29:05;;;;;;;14.10;3.00;;;6.20;99.90;;;;;;6127101;23;20359;-79
2023/01/14 04:31:30;;;;;;;17.17;4.10;;;6.20;99.90;;;;;;6104071;23;20024;-79
2023/01/14 04:33:56;;;;;;;20.63;3.38;;;6.20;99.90;;;;;;6127011;23;20857;-79
2023/01/14 04:36:21;;;;;;;17.02;2.55;;;6.30;99.90;;;;;;6104109;23;20603;-79
2023/01/14 04:38:47;;;;;;;22.70;2.20;;;6.20;99.90;;;;;;6127428;23;20013;-79
2023/01/14 04:42:26;;;;;;;16.33;2.58;;;6.20;99.90;;;;;;6129380;23;20055;-79
2023/01/14 04:43:59;;;;;;;15.48;3.58;;;6.20;99.90;;;;;;6127031;23;20036;-79
2023/01/14 04:46:25;;;;;;;15.77;2.38;;;6.20;99.90;;;;;;6104187;23;20041;-80
2023/01/14 04:48:50;;;;;;;23.35;3.47;;;6.20;99.90;;;;;;6127774;23;20043;-79
2023/01/14 04:51:16;;;;;;;23.23;3.40;;;6.20;99.90;;;;;;6128019;23;20017;-79
2023/01/14 04:53:41;;;;;;;23.42;2.92;;;6.20;99.90;;;;;;6127374;23;20041;-79
2023/01/14 04:56:07;;;;;;;19.88;3.63;;;6.20;99.90;;;;;;6127348;23;20017;-79
2023/01/14 04:58:33;;;;;;;22.90;3.30;;;6.10;99.90;;;;;;6128051;23;20029;-80
2023/01/14 05:00:59;;;;;;;16.58;3.03;;;6.40;99.90;;;;;;6102869;23;20013;-79
2023/01/14 05:03:25;;;;;;;19.17;3.13;;;6.20;99.90;;;;;;6127391;23;20045;-80
2023/01/14 05:05:51;;;;;;;19.90;3.95;;;6.20;99.90;;;;;;6126924;23;20017;-80
2023/01/14 05:08:16;;;;;;;20.10;3.03;;;6.10;99.90;;;;;;6103039;23;20088;-79
2023/01/14 05:10:42;;;;;;;22.20;3.08;;;6.20;99.90;;;;;;6102668;23;20442;-80
2023/01/14 05:13:08;;;;;;;12.70;2.67;;;6.10;99.90;;;;;;6126891;23;20097;-80
2023/01/14 05:15:40;;;;;;;20.98;2.92;;;6.10;99.90;;;;;;6103411;23;20017;-80
2023/01/14 05:18:07;;;;;;;18.35;4.03;;;6.10;99.90;;;;;;6130780;23;20072;-83
2023/01/14 05:20:32;;;;;;;20.58;3.88;;;6.10;99.90;;;;;;6129946;23;20328;-79
2023/01/14 05:23:00;;;;;;;20.35;4.07;;;6.10;99.90;;;;;;6104709;23;20017;-80
2023/01/14 05:25:27;;;;;;;18.80;4.43;;;6.10;99.90;;;;;;6127922;23;20021;-80
2023/01/14 05:27:52;;;;;;;25.42;3.47;;;6.10;99.90;;;;;;6105994;23;20104;-80
2023/01/14 05:30:18;;;;;;;19.77;3.80;;;6.10;99.90;;;;;;6128302;23;20480;-80
2023/01/14 05:32:44;;;;;;;25.27;4.50;;;6.10;99.90;;;;;;6130007;23;20013;-80
2023/01/14 05:35:09;;;;;;;17.77;2.88;;;6.10;99.90;;;;;;6128997;23;20013;-80
2023/01/14 05:37:38;;;;;;;21.80;4.40;;;6.10;99.90;;;;;;6129831;23;20509;-85
2023/01/14 05:40:04;;;;;;;20.58;3.58;;;6.10;99.90;;;;;;6128691;23;20109;-86
2023/01/14 05:48:00;;;;;;;26.80;3.97;;;6.10;99.90;;;;;;6128924;23;20080;-80
2023/01/14 05:50:25;;;;;;;33.15;5.30;;;6.10;99.90;;;;;;6129784;23;20100;-81
2023/01/14 05:52:51;;;;;;;19.35;4.70;;;6.00;99.90;;;;;;6104606;23;20018;-82
2023/01/14 05:55:16;;;;;;;19.05;4.45;;;6.10;99.90;;;;;;6125875;23;20073;-79
2023/01/14 05:57:42;;;;;;;28.98;5.85;;;6.10;99.90;;;;;;6127761;23;20458;-80
2023/01/14 06:06:20;;;;;;;27.20;4.40;;;6.10;99.90;;;;;;6128950;23;20428;-82
2023/01/14 06:08:33;;;;;;;18.98;4.93;;;6.10;99.90;;;;;;6156023;23;20727;-79
2023/01/14 06:10:59;;;;;;;31.23;5.03;;;6.00;99.90;;;;;;6103958;23;20009;-80
2023/01/14 06:13:25;;;;;;;23.67;5.88;;;5.90;99.90;;;;;;6129547;23;20115;-79
2023/01/14 06:15:52;;;;;;;29.42;5.97;;;5.90;99.90;;;;;;6102772;23;20024;-80
2023/01/14 06:18:22;;;;;;;28.35;6.03;;;6.00;99.90;;;;;;6102843;23;20018;-79
2023/01/14 06:20:53;;;;;;;21.67;5.05;;;5.90;99.90;;;;;;6103600;23;20020;-82
2023/01/14 06:23:20;;;;;;;30.90;5.57;;;6.00;99.90;;;;;;6127837;23;20017;-80
2023/01/14 06:25:48;;;;;;;28.80;6.30;;;5.90;99.90;;;;;;6102031;23;20077;-82
2023/01/14 06:28:15;;;;;;;29.17;6.93;;;5.90;99.90;;;;;;6128332;23;20017;-80
2023/01/14 06:30:41;;;;;;;35.22;5.85;;;6.00;99.90;;;;;;6102997;23;20504;-82
2023/01/14 06:33:07;;;;;;;26.90;6.22;;;6.00;99.90;;;;;;6123116;23;20040;-80
2023/01/14 06:35:34;;;;;;;25.63;5.75;;;6.00;99.90;;;;;;6125439;23;20013;-82
2023/01/14 06:38:00;;;;;;;24.20;6.32;;;6.00;99.90;;;;;;6108476;23;20048;-82
2023/01/14 06:40:25;;;;;;;30.92;5.78;;;6.00;99.90;;;;;;6108010;23;20032;-82
2023/01/14 06:42:55;;;;;;;29.90;6.18;;;5.90;99.90;;;;;;6108019;23;20009;-82
2023/01/14 06:45:22;;;;;;;32.28;6.10;;;6.00;99.90;;;;;;6132012;23;20009;-81
2023/01/14 06:47:47;;;;;;;30.85;5.55;;;6.00;99.90;;;;;;6107363;23;20041;-81
2023/01/14 06:50:14;;;;;;;30.75;5.25;;;6.00;99.90;;;;;;6108757;23;20009;-83
2023/01/14 06:52:39;;;;;;;32.15;5.63;;;6.00;99.90;;;;;;6108795;23;20014;-85
2023/01/14 06:55:06;;;;;;;30.10;6.75;;;6.00;99.90;;;;;;6106390;23;20021;-82
2023/01/14 06:57:31;;;;;;;31.42;5.80;;;6.00;99.90;;;;;;6128032;23;20369;-80
2023/01/14 06:59:57;;;;;;;35.83;5.80;;;6.10;99.90;;;;;;6122854;23;20017;-79
2023/01/14 07:02:22;;;;;;;34.08;6.70;;;6.10;99.90;;;;;;6122486;23;20049;-78
2023/01/14 07:04:48;;;;;;;35.58;5.82;;;6.10;99.90;;;;;;6098058;23;20481;-82
2023/01/14 07:07:14;;;;;;;29.98;5.78;;;6.20;99.90;;;;;;6100199;23;20021;-81
2023/01/14 07:09:39;;;;;;;27.08;5.40;;;6.20;99.90;;;;;;6124367;23;20021;-82
2023/01/14 07:12:05;;;;;;;32.15;5.78;;;6.20;99.90;;;;;;6125889;23;20017;-79
2023/01/14 07:14:31;;;;;;;29.38;5.80;;;6.20;99.90;;;;;;6123881;23;20013;-79
2023/01/14 07:16:56;;;;;;;28.35;5.80;;;6.20;99.90;;;;;;6120434;23;20021;-85
2023/01/14 07:19:22;;;;;;;20.75;5.82;;;6.30;99.90;;;;;;6125929;23;20017;-82
2023/01/14 07:21:47;;;;;;;28.83;4.70;;;6.20;99.90;;;;;;6126745;23;20018;-82
2023/01/14 07:24:13;;;;;;;29.73;6.00;;;6.30;99.90;;;;;;6125554;23;20016;-81
2023/01/14 07:26:38;;;;;;;27.95;5.50;;;6.30;99.90;;;;;;6121430;23;20085;-80
2023/01/14 07:29:04;;;;;;;26.85;6.03;;;6.30;99.90;;;;;;6122796;23;20017;-80
2023/01/14 07:31:30;;;;;;;32.45;7.55;;;6.30;99.90;;;;;;6125157;23;20024;-80
2023/01/14 07:33:55;;;;;;;29.77;5.15;;;6.30;99.90;;;;;;6102070;23;20082;-80
2023/01/14 07:36:21;;;;;;;31.48;5.97;;;6.30;99.90;;;;;;6125763;23;20017;-81
2023/01/14 07:38:46;;;;;;;27.75;5.90;;;6.30;99.90;;;;;;6125019;23;20019;-80
2023/01/14 07:41:18;;;;;;;39.88;7.60;;;6.30;99.90;;;;;;6102098;23;20016;-79
2023/01/14 07:43:47;;;;;;;31.42;6.00;;;6.40;99.90;;;;;;6125243;23;20450;-81
2023/01/14 07:46:13;;;;;;;28.85;6.05;;;6.70;99.90;;;;;;6123609;23;20013;-80
2023/01/14 07:48:40;;;;;;;30.70;5.75;;;6.40;99.90;;;;;;6122251;23;20017;-80
2023/01/14 07:51:08;;;;;;;28.88;6.35;;;6.40;99.90;;;;;;6124391;23;20013;-82
2023/01/14 07:53:34;;;;;;;27.23;5.60;;;6.40;99.90;;;;;;6127002;23;20105;-84
2023/01/14 07:56:03;;;;;;;24.77;6.13;;;6.40;99.90;;;;;;6127327;23;20013;-80
2023/01/14 07:58:29;;;;;;;38.55;7.10;;;6.50;99.90;;;;;;6128410;23;20018;-79
2023/01/14 08:00:55;;;;;;;28.35;4.38;;;6.40;99.90;;;;;;6121941;23;20024;-80
2023/01/14 08:03:22;;;;;;;34.60;5.97;;;6.40;99.90;;;;;;6126959;23;20024;-80
2023/01/14 08:05:48;;;;;;;26.60;4.68;;;6.50;99.90;;;;;;6125104;23;20014;-78
2023/01/14 08:08:14;;;;;;;26.65;5.22;;;6.50;99.90;;;;;;6124201;23;20048;-79
2023/01/14 08:10:40;;;;;;;26.67;5.80;;;6.50;99.90;;;;;;6124319;23;20578;-79
2023/01/14 08:13:05;;;;;;;21.85;4.43;;;6.50;99.90;;;;;;6125207;23;20053;-79
2023/01/14 08:15:31;;;;;;;25.65;4.55;;;6.50;99.90;;;;;;6124788;23;20025;-79
2023/01/14 08:17:57;;;;;;;27.77;5.07;;;6.40;99.90;;;;;;6125101;23;20053;-82
2023/01/14 08:20:23;;;;;;;28.73;5.20;;;6.50;99.90;;;;;;6124786;23;20017;-82
2023/01/14 08:23:07;;;;;;;25.88;4.47;;;6.50;99.90;;;;;;6124719;23;20450;-79
2023/01/14 08:25:32;;;;;;;22.38;3.95;;;6.40;99.90;;;;;;6123582;23;20020;-79
2023/01/14 08:27:58;;;;;;;23.08;4.47;;;6.40;99.90;;;;;;6126024;23;20006;-78
2023/01/14 08:30:23;;;;;;;29.80;4.13;;;6.40;99.90;;;;;;6125725;23;20466;-78
2023/01/14 08:32:49;;;;;;;26.45;3.92;;;6.40;99.90;;;;;;6124624;23;20025;-79
2023/01/14 08:35:14;;;;;;;33.03;5.97;;;6.50;99.90;;;;;;6123536;23;20096;-78
2023/01/14 08:37:41;;;;;;;22.17;3.75;;;6.40;99.90;;;;;;6101203;23;20017;-78
2023/01/14 08:40:07;;;;;;;26.70;3.88;;;6.40;99.90;;;;;;6124948;23;20088;-78
2023/01/14 08:42:33;;;;;;;31.77;5.90;;;6.40;99.90;;;;;;6100958;23;20056;-78
2023/01/14 08:44:58;;;;;;;27.08;5.63;;;6.40;99.90;;;;;;6098622;23;20155;-78
2023/01/14 08:47:24;;;;;;;21.75;4.43;;;6.40;99.90;;;;;;6125483;23;20426;-78
2023/01/14 08:49:49;;;;;;;23.02;3.78;;;6.40;99.90;;;;;;6125387;23;20018;-79
2023/01/14 08:52:15;;;;;;;26.35;4.00;;;6.40;99.90;;;;;;6125377;23;20025;-78
2023/01/14 08:54:40;;;;;;;31.10;4.20;;;6.40;99.90;;;;;;6151153;23;20009;-78
2023/01/14 08:57:06;;;;;;;19.77;4.18;;;6.40;99.90;;;;;;6124693;23;20025;-78
2023/01/14 08:59:31;;;;;;;27.13;4.15;;;6.40;99.90;;;;;;6124599;23;20014;-78
2023/01/14 09:01:57;;;;;;;19.13;3.95;;;6.40;99.90;;;;;;6125055;23;20064;-80
2023/01/14 09:04:26;;;;;;;24.42;4.47;;;6.40;99.90;;;;;;6125035;23;20024;-78
2023/01/14 09:17:59;;;;;;;27.83;4.03;;;6.40;99.90;;;;;;6124935;23;20084;-80
2023/01/14 09:20:35;;;;;;;22.27;4.00;;;6.30;99.90;;;;;;6124787;23;20017;-81
2023/01/14 09:23:02;;;;;;;22.02;3.08;;;6.40;99.90;;;;;;6125873;23;20017;-80
2023/01/14 09:25:28;;;;;;;24.73;3.67;;;6.40;99.90;;;;;;6124143;23;20458;-78
2023/01/14 09:27:54;;;;;;;24.20;4.65;;;6.40;99.90;;;;;;6100014;23;20068;-78
2023/01/14 09:30:19;;;;;;;18.60;3.78;;;6.40;99.90;;;;;;6124134;23;20635;-78
2023/01/14 09:32:45;;;;;;;21.85;4.30;;;6.40;99.90;;;;;;6125215;23;20021;-79
2023/01/14 09:35:11;;;;;;;14.18;3.30;;;6.40;99.90;;;;;;6124341;23;20033;-79
2023/01/14 09:37:36;;;;;;;21.58;3.65;;;6.40;99.90;;;;;;6124768;23;20053;-79
2023/01/14 09:40:03;;;;;;;14.93;3.08;;;6.50;99.90;;;;;;6124343;23;20048;-80
2023/01/14 09:42:33;;;;;;;20.55;4.13;;;6.50;99.90;;;;;;6124640;23;20010;-79
2023/01/14 09:45:32;;;;;;;17.27;3.65;;;6.50;99.90;;;;;;6124313;23;20088;-79
2023/01/14 09:48:14;;;;;;;19.58;3.33;;;6.50;99.90;;;;;;6125624;23;20068;-79
2023/01/14 09:51:09;;;;;;;11.70;2.55;;;6.50;99.90;;;;;;6123563;23;20017;-78
2023/01/14 09:53:41;;;;;;;13.48;3.20;;;6.50;99.90;;;;;;6124649;23;20031;-80
2023/01/14 09:56:28;;;;;;;14.90;2.65;;;6.60;99.90;;;;;;6124159;23;20474;-80
2023/01/14 09:58:57;;;;;;;15.55;3.33;;;6.60;99.90;;;;;;6124109;23;20018;-79
2023/01/14 10:01:56;;;;;;;8.52;1.85;;;6.60;99.90;;;;;;6125033;23;20021;-79
2023/01/14 10:04:42;;;;;;;12.80;2.53;;;6.60;99.90;;;;;;6124300;23;20450;-79
2023/01/14 10:07:12;;;;;;;12.50;2.40;;;6.60;99.90;;;;;;6100160;23;20014;-79
2023/01/14 10:09:52;;;;;;;10.98;2.53;;;6.70;99.90;;;;;;6124333;23;20013;-82
2023/01/14 10:12:29;;;;;;;11.73;2.03;;;6.60;99.90;;;;;;6124673;23;20025;-79
2023/01/14 10:15:17;;;;;;;13.43;2.28;;;6.70;99.90;;;;;;6100294;23;20024;-79
2023/01/14 10:17:48;;;;;;;12.25;2.78;;;6.70;99.90;;;;;;6125162;23;20021;-79
2023/01/14 10:20:28;;;;;;;7.40;1.58;;;6.80;99.90;;;;;;6124741;23;20022;-79
2023/01/14 10:23:10;;;;;;;8.30;1.70;;;6.80;99.90;;;;;;6100492;23;20041;-78
2023/01/14 10:25:38;;;;;;;10.45;2.13;;;6.80;99.90;;;;;;6123790;23;20020;-78
2023/01/14 10:28:12;;;;;;;9.80;2.03;;;6.80;99.90;;;;;;6127141;23;20017;-78
2023/01/14 10:30:38;;;;;;;9.20;1.98;;;6.80;99.90;;;;;;6100651;23;20014;-78
2023/01/14 10:33:13;;;;;;;11.70;2.15;;;6.90;99.90;;;;;;6126537;23;20013;-78
2023/01/14 10:35:45;;;;;;;7.50;1.27;;;6.90;99.90;;;;;;6101784;23;20014;-78
2023/01/14 10:38:21;;;;;;;7.57;1.65;;;6.90;99.90;;;;;;6127260;23;20143;-78
2023/01/14 10:40:47;;;;;;;8.85;1.67;;;7.00;99.90;;;;;;6126356;23;20045;-78
2023/01/14 10:43:30;;;;;;;9.00;2.28;;;7.00;99.90;;;;;;6127795;23;20017;-78
2023/01/14 10:45:56;;;;;;;8.15;1.90;;;7.00;99.90;;;;;;6124913;23;20021;-78
2023/01/14 10:48:24;;;;;;;5.80;1.73;;;7.00;99.90;;;;;;6127221;23;20016;-78
2023/01/14 10:50:51;;;;;;;6.63;1.23;;;7.00;99.90;;;;;;6102498;23;20121;-78
2023/01/14 10:53:22;;;;;;;7.68;1.38;;;7.10;99.90;;;;;;6126924;23;20018;-78
2023/01/14 10:56:00;;;;;;;7.78;1.20;;;7.10;99.90;;;;;;6127073;23;20386;-78
2023/01/14 10:58:30;;;;;;;7.38;1.20;;;7.10;99.90;;;;;;6127286;23;20021;-78
2023/01/14 11:01:04;;;;;;;10.32;1.70;;;7.20;99.90;;;;;;6103390;23;20481;-78
2023/01/14 11:03:33;;;;;;;7.68;0.80;;;7.20;99.90;;;;;;6101561;23;20069;-78
2023/01/14 11:06:01;;;;;;;6.03;1.08;;;7.20;99.90;;;;;;6126021;23;20025;-78
2023/01/14 11:08:40;;;;;;;6.35;1.63;;;7.20;99.90;;;;;;6102177;23;20041;-78
2023/01/14 11:11:14;;;;;;;10.07;1.65;;;7.30;99.90;;;;;;6127605;23;20022;-78
2023/01/14 11:13:44;;;;;;;7.05;1.02;;;7.30;99.90;;;;;;6126726;23;20018;-78
2023/01/14 11:16:21;;;;;;;4.65;0.82;;;7.30;99.90;;;;;;6100966;23;20032;-78
2023/01/14 11:19:02;;;;;;;7.65;1.52;;;7.30;99.90;;;;;;6102887;23;20354;-78
2023/01/14 11:21:33;;;;;;;7.00;2.00;;;7.30;99.90;;;;;;6127352;23;20013;-78
2023/01/14 11:24:03;;;;;;;3.90;1.23;;;7.30;99.90;;;;;;6126695;23;20059;-78
2023/01/14 11:26:32;;;;;;;4.80;1.30;;;7.40;99.90;;;;;;6126022;23;20319;-78
2023/01/14 11:29:19;;;;;;;7.75;1.50;;;7.30;99.90;;;;;;6102042;23;20215;-78
2023/01/14 11:31:47;;;;;;;7.05;1.33;;;7.40;99.90;;;;;;6101793;23;20013;-78
2023/01/14 11:34:38;;;;;;;6.22;1.20;;;7.40;99.90;;;;;;6126416;23;20018;-78
2023/01/14 11:37:10;;;;;;;7.35;1.45;;;7.40;99.90;;;;;;6126072;23;20506;-78
2023/01/14 11:39:38;;;;;;;5.90;1.10;;;7.40;99.90;;;;;;6102277;23;20017;-78
2023/01/14 11:42:30;;;;;;;10.38;1.60;;;7.40;99.90;;;;;;6128126;23;20021;-78
2023/01/14 11:44:59;;;;;;;4.97;1.10;;;7.40;99.90;;;;;;6102215;23;20029;-78
2023/01/14 11:47:26;;;;;;;6.18;0.90;;;7.40;99.90;;;;;;6127055;23;20018;-78
2023/01/14 11:50:22;;;;;;;6.07;1.30;;;7.50;99.90;;;;;;6125999;23;20010;-78
2023/01/14 11:53:15;;;;;;;6.47;1.40;;;7.50;99.90;;;;;;6127849;23;20462;-78
2023/01/14 11:55:41;;;;;;;2.65;0.88;;;7.50;99.90;;;;;;6124424;23;20124;-78
2023/01/14 11:58:25;;;;;;;4.53;1.17;;;7.50;99.90;;;;;;6126996;23;20013;-78
2023/01/14 12:01:18;;;;;;;3.78;0.80;;;7.50;99.90;;;;;;6125669;23;20024;-78
2023/01/14 12:04:02;;;;;;;4.45;0.82;;;7.50;99.90;;;;;;6126079;23;20022;-78
2023/01/14 12:06:55;;;;;;;7.45;0.90;;;7.50;99.90;;;;;;6125823;23;20119;-78
2023/01/14 12:09:24;;;;;;;2.97;0.65;;;7.60;99.90;;;;;;6100121;23;20016;-78
2023/01/14 12:11:54;;;;;;;4.35;1.15;;;7.60;99.90;;;;;;6125918;23;20013;-78
2023/01/14 12:17:20;;;;;;;3.03;0.68;;;7.70;99.90;;;;;;6125115;23;20029;-78
2023/01/14 12:19:50;;;;;;;3.65;0.65;;;7.70;99.90;;;;;;6127550;23;20084;-78
2023/01/14 12:22:28;;;;;;;1.83;0.88;;;7.80;99.90;;;;;;6127440;23;20050;-78
2023/01/14 12:25:15;;;;;;;4.72;0.68;;;7.80;99.90;;;;;;6126634;23;20088;-78
2023/01/14 12:27:53;;;;;;;2.50;0.52;;;7.80;99.90;;;;;;6126902;23;20009;-78
2023/01/14 12:30:50;;;;;;;4.35;0.70;;;7.90;99.90;;;;;;6124852;23;20053;-78
2023/01/14 12:33:41;;;;;;;6.40;0.90;;;7.90;99.90;;;;;;6127675;23;20340;-78
2023/01/14 12:36:14;;;;;;;3.17;0.93;;;8.00;99.90;;;;;;6101683;23;20077;-78
2023/01/14 12:47:18;;;;;;;1.98;0.30;;;8.20;99.90;;;;;;6127295;23;20025;-78
2023/01/14 12:49:44;;;;;;;2.70;0.60;;;8.20;99.90;;;;;;6125742;23;20010;-78
2023/01/14 12:52:12;;;;;;;4.78;1.30;;;8.30;99.90;;;;;;6127216;23;20129;-78
2023/01/14 12:54:40;;;;;;;2.58;0.40;;;8.30;99.90;;;;;;6125560;23;20026;-78
2023/01/14 12:57:07;;;;;;;1.38;0.47;;;8.30;99.90;;;;;;6126262;23;20032;-78
2023/01/14 12:59:38;;;;;;;2.63;0.50;;;8.40;99.90;;;;;;6101861;23;20056;-78
2023/01/14 13:02:29;;;;;;;2.20;0.63;;;8.40;99.90;;;;;;6125127;23;20025;-78
2023/01/14 13:05:10;;;;;;;2.50;0.43;;;8.50;99.90;;;;;;6125692;23;20021;-78
2023/01/14 13:07:58;;;;;;;3.22;0.40;;;8.60;99.90;;;;;;6103012;23;20017;-78
2023/01/14 13:10:34;;;;;;;1.98;0.50;;;8.60;99.90;;;;;;6124432;23;20515;-78
2023/01/14 13:13:05;;;;;;;2.78;0.85;;;8.60;99.90;;;;;;6102386;23;20108;-76
2023/01/14 13:15:33;;;;;;;1.92;0.40;;;8.60;99.90;;;;;;6100017;23;20051;-78
2023/01/14 13:18:01;;;;;;;2.47;0.50;;;8.60;99.90;;;;;;6127293;23;20083;-78
2023/01/14 13:20:32;;;;;;;1.70;0.55;;;8.70;99.90;;;;;;6126698;23;20025;-78
2023/01/14 13:22:59;;;;;;;2.53;0.40;;;8.70;99.90;;;;;;6102181;23;20096;-78
2023/01/14 13:25:42;;;;;;;2.53;0.30;;;8.70;99.90;;;;;;6123916;23;20413;-78
2023/01/14 13:28:10;;;;;;;1.35;0.30;;;8.80;99.90;;;;;;6126317;23;20013;-78
2023/01/14 13:30:44;;;;;;;3.00;0.30;;;8.80;99.90;;;;;;6125950;23;20044;-78
2023/01/14 13:33:27;;;;;;;1.92;0.20;;;8.90;99.90;;;;;;6125841;23;20121;-78
2023/01/14 13:36:11;;;;;;;2.35;0.30;;;8.90;99.90;;;;;;6100080;23;20386;-78
2023/01/14 13:38:59;;;;;;;3.40;0.50;;;8.90;99.90;;;;;;6101187;23;20013;-78
2023/01/14 13:41:47;;;;;;;2.78;0.40;;;9.00;99.90;;;;;;6152846;23;20469;-78
2023/01/14 13:44:19;;;;;;;1.58;0.40;;;9.10;99.90;;;;;;6125713;23;20351;-78
2023/01/14 13:46:49;;;;;;;3.17;0.30;;;9.10;99.90;;;;;;6152081;23;20013;-78
2023/01/14 13:49:34;;;;;;;1.05;0.30;;;9.10;99.90;;;;;;6125416;23;20013;-79
2023/01/14 13:52:25;;;;;;;1.77;0.30;;;9.10;99.90;;;;;;6102043;23;20017;-78